createdAt,value
2022-12-13T00:02:07.319Z,62.66
2022-12-13T00:07:12.382Z,61.53
2022-12-13T00:12:16.631Z,62.66
2022-12-13T00:17:20.191Z,62.55
2022-12-13T00:22:24.925Z,62.46
2022-12-13T00:27:28.491Z,63.10
2022-12-13T00:32:32.063Z,62.94
2022-12-13T00:37:37.070Z,62.05
2022-12-13T00:42:40.122Z,63.23
2022-12-13T00:47:43.530Z,63.23
2022-12-13T00:52:48.427Z,62.36
2022-12-13T00:57:52.051Z,63.19
2022-12-13T01:02:55.565Z,63.15
2022-12-13T01:08:00.544Z,63.99
2022-12-13T01:13:03.890Z,63.27
2022-12-13T01:18:07.553Z,63.12
2022-12-13T01:23:12.297Z,63.47
2022-12-13T01:28:15.861Z,63.11
2022-12-13T01:33:19.317Z,62.20
2022-12-13T01:38:26.215Z,62.93
2022-12-13T01:43:50.982Z,63.03
2022-12-13T01:48:59.891Z,63.61
2022-12-13T01:54:07.726Z,62.21
2022-12-13T01:59:14.263Z,62.95
2022-12-13T02:04:22.272Z,63.63
2022-12-13T02:09:28.037Z,62.65
2022-12-13T02:14:31.589Z,63.52
2022-12-13T02:20:31.090Z,62.16
2022-12-13T02:25:54.980Z,62.80
2022-12-13T02:31:07.717Z,62.96
2022-12-13T02:36:18.951Z,62.90
2022-12-13T02:42:21.316Z,64.21
2022-12-13T02:48:22.222Z,63.44
2022-12-13T02:53:27.003Z,62.68
2022-12-13T02:58:34.561Z,63.56
2022-12-13T03:03:47.437Z,63.89
2022-12-13T03:08:58.439Z,64.14
2022-12-13T03:14:09.091Z,63.76
2022-12-13T03:19:15.303Z,63.66
2022-12-13T03:24:20.441Z,63.04
2022-12-13T03:29:25.093Z,63.10
2022-12-13T03:34:43.697Z,63.33
2022-12-13T03:39:49.312Z,63.50
2022-12-13T03:44:52.801Z,62.95
2022-12-13T03:49:57.919Z,63.41
2022-12-13T03:55:21.328Z,63.37
2022-12-13T04:00:25.208Z,63.29
2022-12-13T04:05:30.783Z,62.33
2022-12-13T04:10:35.658Z,63.45
2022-12-13T04:15:38.974Z,63.46
2022-12-13T04:20:43.975Z,63.17
2022-12-13T04:25:47.649Z,63.83
2022-12-13T04:30:53.693Z,63.74
2022-12-13T04:35:58.772Z,63.05
2022-12-13T04:41:09.934Z,62.23
2022-12-13T04:46:13.349Z,62.81
2022-12-13T04:51:18.795Z,63.20
2022-12-13T04:56:22.343Z,62.25
2022-12-13T05:01:26.030Z,63.14
2022-12-13T05:06:31.309Z,62.65
2022-12-13T05:11:35.499Z,62.72
2022-12-13T05:16:39.695Z,62.63
2022-12-13T05:21:44.758Z,64.27
2022-12-13T05:26:48.040Z,62.77
2022-12-13T05:31:51.679Z,62.35
2022-12-13T05:36:56.847Z,62.62
2022-12-13T05:42:02.715Z,62.67
2022-12-13T05:47:06.680Z,61.89
2022-12-13T05:52:19.017Z,62.14
2022-12-13T05:57:22.599Z,62.41
2022-12-13T06:02:26.018Z,62.92
2022-12-13T06:07:31.222Z,62.58
2022-12-13T06:12:35.904Z,61.45
2022-12-13T06:17:47.009Z,62.11
2022-12-13T06:22:51.774Z,63.07
2022-12-13T06:27:55.424Z,62.72
2022-12-13T06:32:58.897Z,62.70
2022-12-13T06:38:03.903Z,62.03
2022-12-13T06:43:15.902Z,62.03
2022-12-13T06:48:20.425Z,62.24
2022-12-13T06:53:25.722Z,61.52
2022-12-13T06:58:29.281Z,61.84
2022-12-13T07:03:33.033Z,61.98
2022-12-13T07:08:38.309Z,61.93
2022-12-13T07:13:41.705Z,62.08
2022-12-13T07:18:45.224Z,61.59
2022-12-13T07:23:54.878Z,62.78
2022-12-13T07:28:59.211Z,62.48
2022-12-13T07:34:02.791Z,62.89
2022-12-13T07:39:07.740Z,62.23
2022-12-13T07:44:10.769Z,61.71
2022-12-13T07:49:14.247Z,61.75
2022-12-13T07:54:19.185Z,62.32
2022-12-13T07:59:28.364Z,61.78
2022-12-13T08:04:38.125Z,61.67
2022-12-13T08:09:49.525Z,61.23
2022-12-13T08:14:56.014Z,60.88
2022-12-13T08:19:59.403Z,61.30
2022-12-13T08:25:04.673Z,59.88
2022-12-13T08:30:09.515Z,60.02
2022-12-13T08:35:13.036Z,61.36
2022-12-13T08:40:18.258Z,61.63
2022-12-13T08:45:21.767Z,61.15
2022-12-13T08:50:25.274Z,61.54
2022-12-13T08:55:32.230Z,61.78
2022-12-13T09:00:36.776Z,62.13
2022-12-13T09:05:40.282Z,61.50
2022-12-13T09:10:46.191Z,61.18
2022-12-13T09:15:49.662Z,61.45
2022-12-13T09:20:53.583Z,60.69
2022-12-13T09:26:17.502Z,61.38
2022-12-13T09:31:21.595Z,60.43
2022-12-13T09:36:26.445Z,60.89
2022-12-13T09:41:41.071Z,60.29
2022-12-13T09:46:47.464Z,60.61
2022-12-13T09:52:11.683Z,59.22
2022-12-13T09:57:31.925Z,59.72
2022-12-13T10:02:43.800Z,60.82
2022-12-13T10:07:47.619Z,59.95
2022-12-13T10:12:59.176Z,58.93
2022-12-13T10:18:05.911Z,59.69
2022-12-13T10:23:33.111Z,59.81
2022-12-13T10:28:35.300Z,59.29
2022-12-13T10:33:46.330Z,59.15
2022-12-13T10:38:50.996Z,59.56
2022-12-13T10:44:23.143Z,58.75
2022-12-13T10:49:29.487Z,59.42
2022-12-13T10:54:38.825Z,59.04
2022-12-13T10:59:53.980Z,60.12
2022-12-13T11:04:59.011Z,59.09
2022-12-13T11:10:23.681Z,57.93
2022-12-13T11:15:34.874Z,58.34
2022-12-13T11:20:39.716Z,59.63
2022-12-13T11:25:45.206Z,59.20
2022-12-13T11:31:01.490Z,58.01
2022-12-13T11:36:17.483Z,58.41
2022-12-13T11:41:31.367Z,58.07
2022-12-13T11:46:42.244Z,57.25
2022-12-13T11:51:50.429Z,57.88
2022-12-13T11:57:00.611Z,58.31
2022-12-13T12:02:16.422Z,57.60
2022-12-13T12:07:32.862Z,58.03
2022-12-13T12:12:39.179Z,58.33
2022-12-13T12:17:44.356Z,57.52
2022-12-13T12:22:54.532Z,57.40
2022-12-13T12:28:07.005Z,57.73
2022-12-13T12:33:22.461Z,57.66
2022-12-13T12:38:48.112Z,56.62
2022-12-13T12:43:57.743Z,57.43
2022-12-13T12:49:34.433Z,56.77
2022-12-13T12:54:45.547Z,56.53
2022-12-13T13:00:03.647Z,56.15
2022-12-13T13:05:20.660Z,56.50
2022-12-13T13:10:26.824Z,56.09
2022-12-13T13:15:56.637Z,54.62
2022-12-13T13:21:42.127Z,55.87
2022-12-13T13:26:49.257Z,56.69
2022-12-13T13:32:02.109Z,55.66
2022-12-13T13:37:06.737Z,55.79
2022-12-13T13:42:19.503Z,54.34
2022-12-13T13:47:42.155Z,53.20
2022-12-13T13:52:58.883Z,55.66
2022-12-13T13:58:29.152Z,54.69
2022-12-13T14:04:06.190Z,55.38
2022-12-13T14:09:49.527Z,54.32
2022-12-13T14:15:34.242Z,54.68
2022-12-13T14:20:46.928Z,54.94
2022-12-13T14:26:05.955Z,55.97
2022-12-13T14:31:22.059Z,55.40
2022-12-13T14:36:32.553Z,54.96
2022-12-13T14:41:47.241Z,54.74
2022-12-13T14:46:55.217Z,55.29
2022-12-13T14:52:03.923Z,55.20
2022-12-13T14:57:07.951Z,55.89
2022-12-13T15:02:18.738Z,55.63
2022-12-13T15:07:39.092Z,55.79
2022-12-13T15:12:43.560Z,55.17
2022-12-13T15:17:48.638Z,55.33
2022-12-13T15:23:00.086Z,54.78
2022-12-13T15:28:04.437Z,55.26
2022-12-13T15:33:19.384Z,54.57
2022-12-13T15:38:28.761Z,55.03
2022-12-13T15:43:38.908Z,55.37
2022-12-13T15:48:48.153Z,55.06
2022-12-13T15:54:08.071Z,54.23
2022-12-13T15:59:27.218Z,54.17
2022-12-13T16:04:34.105Z,55.14
2022-12-13T16:09:39.896Z,54.89
2022-12-13T16:14:53.459Z,55.08
2022-12-13T16:20:16.593Z,54.87
2022-12-13T16:25:20.907Z,55.01
2022-12-13T16:30:26.902Z,54.33
2022-12-13T16:35:31.871Z,54.36
2022-12-13T16:40:36.038Z,53.95
2022-12-13T16:45:43.166Z,54.42
2022-12-13T16:50:57.700Z,54.10
2022-12-13T16:56:01.739Z,54.33
2022-12-13T17:01:10.465Z,53.79
2022-12-13T17:06:18.150Z,53.89
2022-12-13T17:11:21.883Z,54.13
2022-12-13T17:16:25.584Z,54.22
2022-12-13T17:21:30.765Z,53.41
2022-12-13T17:26:35.476Z,53.90
2022-12-13T17:31:39.702Z,54.07
2022-12-13T17:36:45.175Z,54.28
2022-12-13T17:41:54.444Z,53.99
2022-12-13T17:46:59.471Z,53.86
2022-12-13T17:52:04.564Z,54.20
2022-12-13T17:57:10.633Z,53.21
2022-12-13T18:02:15.079Z,53.89
2022-12-13T18:07:20.397Z,53.94
2022-12-13T18:12:23.781Z,53.59
2022-12-13T18:17:46.562Z,53.73
2022-12-13T18:22:52.319Z,53.21
2022-12-13T18:28:00.778Z,52.25
2022-12-13T18:33:05.605Z,52.99
2022-12-13T18:38:10.959Z,53.25
2022-12-13T18:43:14.438Z,53.31
2022-12-13T18:48:18.123Z,53.50
2022-12-13T18:53:23.306Z,53.80
2022-12-13T18:58:27.223Z,53.24
2022-12-13T19:03:31.148Z,53.48
2022-12-13T19:08:36.937Z,54.44
2022-12-13T19:13:40.516Z,54.28
2022-12-13T19:18:44.680Z,54.55
2022-12-13T19:23:56.479Z,54.41
2022-12-13T19:29:01.214Z,54.94
2022-12-13T19:34:04.792Z,54.65
2022-12-13T19:39:11.636Z,54.96
2022-12-13T19:44:15.559Z,54.88
2022-12-13T19:49:19.388Z,55.37
2022-12-13T19:54:26.121Z,55.36
2022-12-13T19:59:29.836Z,55.32
2022-12-13T20:04:33.569Z,55.01
2022-12-13T20:09:39.785Z,55.22
2022-12-13T20:14:43.304Z,55.83
2022-12-13T20:19:47.192Z,55.76
2022-12-13T20:24:52.995Z,56.14
2022-12-13T20:29:56.698Z,54.81
2022-12-13T20:35:00.236Z,56.36
2022-12-13T20:40:05.801Z,56.32
2022-12-13T20:45:11.006Z,57.25
2022-12-13T20:50:15.655Z,57.02
2022-12-13T20:55:21.152Z,57.32
2022-12-13T21:00:25.446Z,57.49
2022-12-13T21:05:29.007Z,57.04
2022-12-13T21:10:34.061Z,57.52
2022-12-13T21:15:37.636Z,57.68
2022-12-13T21:20:41.340Z,57.31
2022-12-13T21:25:46.210Z,57.85
2022-12-13T21:30:52.061Z,58.23
2022-12-13T21:35:55.747Z,58.02
2022-12-13T21:41:00.824Z,58.36
2022-12-13T21:46:06.481Z,58.38
2022-12-13T21:51:13.387Z,58.63
2022-12-13T21:56:38.854Z,58.11
2022-12-13T22:02:03.248Z,57.71
2022-12-13T22:07:08.407Z,58.10
2022-12-13T22:12:21.105Z,58.40
2022-12-13T22:17:33.060Z,57.86
2022-12-13T22:22:40.428Z,59.14
2022-12-13T22:27:45.547Z,59.27
2022-12-13T22:32:49.050Z,59.60
2022-12-13T22:37:54.297Z,59.76
2022-12-13T22:43:01.450Z,59.44
2022-12-13T22:48:05.735Z,59.26
2022-12-13T22:53:09.147Z,58.84
2022-12-13T22:58:14.186Z,58.66
2022-12-13T23:03:17.615Z,59.33
2022-12-13T23:08:21.299Z,59.84
2022-12-13T23:13:26.194Z,59.71
2022-12-13T23:18:30.213Z,58.89
2022-12-13T23:23:34.246Z,58.52
2022-12-13T23:28:40.906Z,59.06
2022-12-13T23:33:46.463Z,58.38
2022-12-13T23:38:50.665Z,58.31
2022-12-13T23:43:57.867Z,59.01
2022-12-13T23:49:02.610Z,58.99
2022-12-13T23:54:06.172Z,57.63
2022-12-13T23:59:11.183Z,57.92
